<?xml version="1.0" encoding="utf-8"?>
<gpx xmlns:xsi="http://www.w3.org/2001/XMLSchema-instance" xmlns:xsd="http://www.w3.org/2001/XMLSchema" version="1.1" creator="Shapelink.com" xmlns="http://www.topografix.com/GPX/1/1" xmlns:gpxtpx="http://www.garmin.com/xmlschemas/TrackPointExtension/v1">
  <metadata>
    <name>Gåing 4.50 km, 2012-05-08</name>
    <desc></desc>
    <author><name>Mikael Blom</name></author> 
    <time>2012-05-08T18:17:23Z</time>
  </metadata>
  <trk>
    <name>Gåing 4.50 km, 2012-05-08</name>
    <trkseg>
      <trkpt lat="59.9921544" lon="17.7377011">
        <ele>61.181</ele>
        <time>2012-05-08T18:17:23Z</time>
      </trkpt>
      <trkpt lat="59.9921373" lon="17.7377028">
        <ele>60.7003</ele>
        <time>2012-05-08T18:17:24Z</time>
      </trkpt>
      <trkpt lat="59.9920184" lon="17.7377396">
        <ele>58.2971</ele>
        <time>2012-05-08T18:17:30Z</time>
      </trkpt>
      <trkpt lat="59.9919951" lon="17.7377589">
        <ele>59.2584</ele>
        <time>2012-05-08T18:17:31Z</time>
      </trkpt>
      <trkpt lat="59.991834" lon="17.7378531">
        <ele>65.0264</ele>
        <time>2012-05-08T18:17:37Z</time>
      </trkpt>
      <trkpt lat="59.9917033" lon="17.7379252">
        <ele>70.7942</ele>
        <time>2012-05-08T18:17:42Z</time>
      </trkpt>
      <trkpt lat="59.9915438" lon="17.7379883">
        <ele>72.7169</ele>
        <time>2012-05-08T18:17:48Z</time>
      </trkpt>
      <trkpt lat="59.9914525" lon="17.7379819">
        <ele>75.6008</ele>
        <time>2012-05-08T18:17:52Z</time>
      </trkpt>
      <trkpt lat="59.9912633" lon="17.7380381">
        <ele>76.5621</ele>
        <time>2012-05-08T18:17:58Z</time>
      </trkpt>
      <trkpt lat="59.9911606" lon="17.7380493">
        <ele>82.3301</ele>
        <time>2012-05-08T18:18:03Z</time>
      </trkpt>
      <trkpt lat="59.9910911" lon="17.7380634">
        <ele>86.1753</ele>
        <time>2012-05-08T18:18:06Z</time>
      </trkpt>
      <trkpt lat="59.9910533" lon="17.7380645">
        <ele>83.2914</ele>
        <time>2012-05-08T18:18:10Z</time>
      </trkpt>
      <trkpt lat="59.9910317" lon="17.7379421">
        <ele>77.5234</ele>
        <time>2012-05-08T18:18:11Z</time>
      </trkpt>
      <trkpt lat="59.9909601" lon="17.7379469">
        <ele>74.6395</ele>
        <time>2012-05-08T18:18:14Z</time>
      </trkpt>
      <trkpt lat="59.9908473" lon="17.7380107">
        <ele>69.8329</ele>
        <time>2012-05-08T18:18:19Z</time>
      </trkpt>
      <trkpt lat="59.9907955" lon="17.7380758">
        <ele>70.3135</ele>
        <time>2012-05-08T18:18:23Z</time>
      </trkpt>
      <trkpt lat="59.9906742" lon="17.7381338">
        <ele>66.4683</ele>
        <time>2012-05-08T18:18:28Z</time>
      </trkpt>
      <trkpt lat="59.9906595" lon="17.7381306">
        <ele>67.4297</ele>
        <time>2012-05-08T18:18:29Z</time>
      </trkpt>
      <trkpt lat="59.9905885" lon="17.738194">
        <ele>67.4297</ele>
        <time>2012-05-08T18:18:35Z</time>
      </trkpt>
      <trkpt lat="59.9904963" lon="17.7382302">
        <ele>67.4297</ele>
        <time>2012-05-08T18:18:41Z</time>
      </trkpt>
      <trkpt lat="59.9904398" lon="17.7383037">
        <ele>65.9877</ele>
        <time>2012-05-08T18:18:45Z</time>
      </trkpt>
      <trkpt lat="59.9904031" lon="17.7383236">
        <ele>66.4683</ele>
        <time>2012-05-08T18:18:49Z</time>
      </trkpt>
      <trkpt lat="59.9903176" lon="17.7383595">
        <ele>63.1036</ele>
        <time>2012-05-08T18:18:52Z</time>
      </trkpt>
      <trkpt lat="59.9902255" lon="17.7383694">
        <ele>61.181</ele>
        <time>2012-05-08T18:18:58Z</time>
      </trkpt>
      <trkpt lat="59.9901536" lon="17.7384058">
        <ele>61.181</ele>
        <time>2012-05-08T18:19:03Z</time>
      </trkpt>
      <trkpt lat="59.9900474" lon="17.7384555">
        <ele>57.8165</ele>
        <time>2012-05-08T18:19:08Z</time>
      </trkpt>
      <trkpt lat="59.9899656" lon="17.7384804">
        <ele>60.7003</ele>
        <time>2012-05-08T18:19:13Z</time>
      </trkpt>
      <trkpt lat="59.9899224" lon="17.7384799">
        <ele>61.6617</ele>
        <time>2012-05-08T18:19:15Z</time>
      </trkpt>
      <trkpt lat="59.9898538" lon="17.7385116">
        <ele>61.6617</ele>
        <time>2012-05-08T18:19:20Z</time>
      </trkpt>
      <trkpt lat="59.9897526" lon="17.7385698">
        <ele>56.8551</ele>
        <time>2012-05-08T18:19:26Z</time>
      </trkpt>
      <trkpt lat="59.9896573" lon="17.7386224">
        <ele>56.3745</ele>
        <time>2012-05-08T18:19:32Z</time>
      </trkpt>
      <trkpt lat="59.9895556" lon="17.7386476">
        <ele>52.5292</ele>
        <time>2012-05-08T18:19:38Z</time>
      </trkpt>
      <trkpt lat="59.9895432" lon="17.7386597">
        <ele>52.0486</ele>
        <time>2012-05-08T18:19:39Z</time>
      </trkpt>
      <trkpt lat="59.9894728" lon="17.7386854">
        <ele>54.4518</ele>
        <time>2012-05-08T18:19:44Z</time>
      </trkpt>
      <trkpt lat="59.9893512" lon="17.7387286">
        <ele>55.8938</ele>
        <time>2012-05-08T18:19:52Z</time>
      </trkpt>
      <trkpt lat="59.9892728" lon="17.738732">
        <ele>56.8551</ele>
        <time>2012-05-08T18:19:58Z</time>
      </trkpt>
      <trkpt lat="59.989234" lon="17.7387378">
        <ele>57.3358</ele>
        <time>2012-05-08T18:20:00Z</time>
      </trkpt>
      <trkpt lat="59.989099" lon="17.7388092">
        <ele>56.3745</ele>
        <time>2012-05-08T18:20:08Z</time>
      </trkpt>
      <trkpt lat="59.9890413" lon="17.7388305">
        <ele>58.7777</ele>
        <time>2012-05-08T18:20:12Z</time>
      </trkpt>
      <trkpt lat="59.9890226" lon="17.7388798">
        <ele>62.6229</ele>
        <time>2012-05-08T18:20:15Z</time>
      </trkpt>
      <trkpt lat="59.9889728" lon="17.7389222">
        <ele>65.0264</ele>
        <time>2012-05-08T18:20:19Z</time>
      </trkpt>
      <trkpt lat="59.9888644" lon="17.739026">
        <ele>64.5457</ele>
        <time>2012-05-08T18:20:25Z</time>
      </trkpt>
      <trkpt lat="59.9887921" lon="17.7390875">
        <ele>65.5071</ele>
        <time>2012-05-08T18:20:31Z</time>
      </trkpt>
      <trkpt lat="59.9887213" lon="17.7391745">
        <ele>63.5844</ele>
        <time>2012-05-08T18:20:37Z</time>
      </trkpt>
      <trkpt lat="59.9886546" lon="17.7392425">
        <ele>66.4683</ele>
        <time>2012-05-08T18:20:43Z</time>
      </trkpt>
      <trkpt lat="59.9885825" lon="17.7392725">
        <ele>68.3909</ele>
        <time>2012-05-08T18:20:49Z</time>
      </trkpt>
      <trkpt lat="59.9884839" lon="17.7393181">
        <ele>65.9877</ele>
        <time>2012-05-08T18:20:55Z</time>
      </trkpt>
      <trkpt lat="59.9884032" lon="17.739365">
        <ele>62.1423</ele>
        <time>2012-05-08T18:21:01Z</time>
      </trkpt>
      <trkpt lat="59.9883813" lon="17.7394315">
        <ele>71.7555</ele>
        <time>2012-05-08T18:21:07Z</time>
      </trkpt>
      <trkpt lat="59.9883249" lon="17.7394463">
        <ele>66.4683</ele>
        <time>2012-05-08T18:21:10Z</time>
      </trkpt>
      <trkpt lat="59.9881846" lon="17.739478">
        <ele>65.9877</ele>
        <time>2012-05-08T18:21:17Z</time>
      </trkpt>
      <trkpt lat="59.9880841" lon="17.7394863">
        <ele>64.5457</ele>
        <time>2012-05-08T18:21:23Z</time>
      </trkpt>
      <trkpt lat="59.9879748" lon="17.7394864">
        <ele>60.2197</ele>
        <time>2012-05-08T18:21:29Z</time>
      </trkpt>
      <trkpt lat="59.9879166" lon="17.7395086">
        <ele>59.2584</ele>
        <time>2012-05-08T18:21:33Z</time>
      </trkpt>
      <trkpt lat="59.9877977" lon="17.739548">
        <ele>58.7777</ele>
        <time>2012-05-08T18:21:39Z</time>
      </trkpt>
      <trkpt lat="59.9877793" lon="17.7395592">
        <ele>57.8165</ele>
        <time>2012-05-08T18:21:40Z</time>
      </trkpt>
      <trkpt lat="59.9877334" lon="17.7395253">
        <ele>60.7003</ele>
        <time>2012-05-08T18:21:44Z</time>
      </trkpt>
      <trkpt lat="59.9876244" lon="17.7395418">
        <ele>60.7003</ele>
        <time>2012-05-08T18:21:51Z</time>
      </trkpt>
      <trkpt lat="59.9875924" lon="17.7395258">
        <ele>66.949</ele>
        <time>2012-05-08T18:21:55Z</time>
      </trkpt>
      <trkpt lat="59.9875388" lon="17.7395211">
        <ele>65.5071</ele>
        <time>2012-05-08T18:21:58Z</time>
      </trkpt>
      <trkpt lat="59.987422" lon="17.739557">
        <ele>60.7003</ele>
        <time>2012-05-08T18:22:03Z</time>
      </trkpt>
      <trkpt lat="59.9873968" lon="17.7395708">
        <ele>59.2584</ele>
        <time>2012-05-08T18:22:04Z</time>
      </trkpt>
      <trkpt lat="59.9873367" lon="17.7395299">
        <ele>59.2584</ele>
        <time>2012-05-08T18:22:08Z</time>
      </trkpt>
      <trkpt lat="59.9872652" lon="17.7395613">
        <ele>54.4518</ele>
        <time>2012-05-08T18:22:12Z</time>
      </trkpt>
      <trkpt lat="59.9872647" lon="17.7395785">
        <ele>54.4518</ele>
        <time>2012-05-08T18:22:13Z</time>
      </trkpt>
      <trkpt lat="59.987201" lon="17.7396017">
        <ele>54.4518</ele>
        <time>2012-05-08T18:22:16Z</time>
      </trkpt>
      <trkpt lat="59.9871186" lon="17.7395968">
        <ele>52.0486</ele>
        <time>2012-05-08T18:22:20Z</time>
      </trkpt>
      <trkpt lat="59.9869745" lon="17.7396004">
        <ele>51.0872</ele>
        <time>2012-05-08T18:22:28Z</time>
      </trkpt>
      <trkpt lat="59.9868818" lon="17.7395293">
        <ele>49.6453</ele>
        <time>2012-05-08T18:22:35Z</time>
      </trkpt>
      <trkpt lat="59.986848" lon="17.7394667">
        <ele>48.684</ele>
        <time>2012-05-08T18:22:39Z</time>
      </trkpt>
      <trkpt lat="59.9867928" lon="17.7393776">
        <ele>47.7225</ele>
        <time>2012-05-08T18:22:45Z</time>
      </trkpt>
      <trkpt lat="59.986788" lon="17.7393191">
        <ele>49.1646</ele>
        <time>2012-05-08T18:22:49Z</time>
      </trkpt>
      <trkpt lat="59.9867512" lon="17.7392668">
        <ele>48.2034</ele>
        <time>2012-05-08T18:22:51Z</time>
      </trkpt>
      <trkpt lat="59.9866872" lon="17.7391928">
        <ele>50.6066</ele>
        <time>2012-05-08T18:22:56Z</time>
      </trkpt>
      <trkpt lat="59.986595" lon="17.7391678">
        <ele>47.7225</ele>
        <time>2012-05-08T18:23:01Z</time>
      </trkpt>
      <trkpt lat="59.986512" lon="17.7390853">
        <ele>46.2806</ele>
        <time>2012-05-08T18:23:07Z</time>
      </trkpt>
      <trkpt lat="59.9864369" lon="17.7389912">
        <ele>45.3192</ele>
        <time>2012-05-08T18:23:12Z</time>
      </trkpt>
      <trkpt lat="59.9864006" lon="17.7389569">
        <ele>45.3192</ele>
        <time>2012-05-08T18:23:15Z</time>
      </trkpt>
      <trkpt lat="59.986288" lon="17.738839">
        <ele>44.358</ele>
        <time>2012-05-08T18:23:22Z</time>
      </trkpt>
      <trkpt lat="59.9862654" lon="17.7387797">
        <ele>50.6066</ele>
        <time>2012-05-08T18:23:25Z</time>
      </trkpt>
      <trkpt lat="59.9862057" lon="17.7386974">
        <ele>53.4905</ele>
        <time>2012-05-08T18:23:30Z</time>
      </trkpt>
      <trkpt lat="59.9861342" lon="17.7387234">
        <ele>53.4905</ele>
        <time>2012-05-08T18:23:35Z</time>
      </trkpt>
      <trkpt lat="59.9861091" lon="17.7387238">
        <ele>53.4905</ele>
        <time>2012-05-08T18:23:37Z</time>
      </trkpt>
      <trkpt lat="59.9860293" lon="17.7386709">
        <ele>53.0098</ele>
        <time>2012-05-08T18:23:43Z</time>
      </trkpt>
      <trkpt lat="59.9859576" lon="17.7386247">
        <ele>52.0486</ele>
        <time>2012-05-08T18:23:48Z</time>
      </trkpt>
      <trkpt lat="59.9858748" lon="17.7386001">
        <ele>51.5679</ele>
        <time>2012-05-08T18:23:53Z</time>
      </trkpt>
      <trkpt lat="59.985795" lon="17.7385685">
        <ele>51.5679</ele>
        <time>2012-05-08T18:23:57Z</time>
      </trkpt>
      <trkpt lat="59.9857485" lon="17.7385463">
        <ele>51.0872</ele>
        <time>2012-05-08T18:24:01Z</time>
      </trkpt>
      <trkpt lat="59.9857053" lon="17.7385062">
        <ele>53.0098</ele>
        <time>2012-05-08T18:24:06Z</time>
      </trkpt>
      <trkpt lat="59.9856164" lon="17.7384153">
        <ele>55.8938</ele>
        <time>2012-05-08T18:24:11Z</time>
      </trkpt>
      <trkpt lat="59.9855218" lon="17.738343">
        <ele>54.4518</ele>
        <time>2012-05-08T18:24:17Z</time>
      </trkpt>
      <trkpt lat="59.9854403" lon="17.7383493">
        <ele>53.4905</ele>
        <time>2012-05-08T18:24:22Z</time>
      </trkpt>
      <trkpt lat="59.9853851" lon="17.7382829">
        <ele>51.5679</ele>
        <time>2012-05-08T18:24:26Z</time>
      </trkpt>
      <trkpt lat="59.9852909" lon="17.7382705">
        <ele>49.6453</ele>
        <time>2012-05-08T18:24:31Z</time>
      </trkpt>
      <trkpt lat="59.9852008" lon="17.7383058">
        <ele>49.1646</ele>
        <time>2012-05-08T18:24:37Z</time>
      </trkpt>
      <trkpt lat="59.9851512" lon="17.7383088">
        <ele>47.7225</ele>
        <time>2012-05-08T18:24:40Z</time>
      </trkpt>
      <trkpt lat="59.9850584" lon="17.7383445">
        <ele>46.2806</ele>
        <time>2012-05-08T18:24:46Z</time>
      </trkpt>
      <trkpt lat="59.9849937" lon="17.7383173">
        <ele>47.2418</ele>
        <time>2012-05-08T18:24:50Z</time>
      </trkpt>
      <trkpt lat="59.9849244" lon="17.7382494">
        <ele>51.5679</ele>
        <time>2012-05-08T18:24:56Z</time>
      </trkpt>
      <trkpt lat="59.9848346" lon="17.7382415">
        <ele>52.5292</ele>
        <time>2012-05-08T18:25:00Z</time>
      </trkpt>
      <trkpt lat="59.9847828" lon="17.7381845">
        <ele>54.9324</ele>
        <time>2012-05-08T18:25:02Z</time>
      </trkpt>
      <trkpt lat="59.9846714" lon="17.7381561">
        <ele>57.3358</ele>
        <time>2012-05-08T18:25:08Z</time>
      </trkpt>
      <trkpt lat="59.9845932" lon="17.7381712">
        <ele>55.4131</ele>
        <time>2012-05-08T18:25:14Z</time>
      </trkpt>
      <trkpt lat="59.9845024" lon="17.738165">
        <ele>52.5292</ele>
        <time>2012-05-08T18:25:19Z</time>
      </trkpt>
      <trkpt lat="59.9844523" lon="17.7381432">
        <ele>52.0486</ele>
        <time>2012-05-08T18:25:23Z</time>
      </trkpt>
      <trkpt lat="59.9844243" lon="17.7381349">
        <ele>51.0872</ele>
        <time>2012-05-08T18:25:26Z</time>
      </trkpt>
      <trkpt lat="59.9843087" lon="17.7381349">
        <ele>51.5679</ele>
        <time>2012-05-08T18:25:33Z</time>
      </trkpt>
      <trkpt lat="59.9842256" lon="17.7380993">
        <ele>54.4518</ele>
        <time>2012-05-08T18:25:38Z</time>
      </trkpt>
      <trkpt lat="59.9841351" lon="17.7381185">
        <ele>55.8938</ele>
        <time>2012-05-08T18:25:44Z</time>
      </trkpt>
      <trkpt lat="59.9840736" lon="17.7381536">
        <ele>56.3745</ele>
        <time>2012-05-08T18:25:48Z</time>
      </trkpt>
      <trkpt lat="59.983994" lon="17.7381526">
        <ele>55.8938</ele>
        <time>2012-05-08T18:25:54Z</time>
      </trkpt>
      <trkpt lat="59.9839606" lon="17.7381432">
        <ele>57.3358</ele>
        <time>2012-05-08T18:25:58Z</time>
      </trkpt>
      <trkpt lat="59.9839347" lon="17.7381518">
        <ele>59.7391</ele>
        <time>2012-05-08T18:26:01Z</time>
      </trkpt>
      <trkpt lat="59.98391" lon="17.7381332">
        <ele>61.181</ele>
        <time>2012-05-08T18:26:03Z</time>
      </trkpt>
      <trkpt lat="59.9838186" lon="17.7381824">
        <ele>58.7777</ele>
        <time>2012-05-08T18:26:08Z</time>
      </trkpt>
      <trkpt lat="59.9837497" lon="17.7382067">
        <ele>53.4905</ele>
        <time>2012-05-08T18:26:11Z</time>
      </trkpt>
      <trkpt lat="59.9836241" lon="17.7382281">
        <ele>48.684</ele>
        <time>2012-05-08T18:26:17Z</time>
      </trkpt>
      <trkpt lat="59.9835173" lon="17.7382022">
        <ele>50.6066</ele>
        <time>2012-05-08T18:26:24Z</time>
      </trkpt>
      <trkpt lat="59.9834374" lon="17.7382114">
        <ele>51.5679</ele>
        <time>2012-05-08T18:26:29Z</time>
      </trkpt>
      <trkpt lat="59.983392" lon="17.7382682">
        <ele>57.3358</ele>
        <time>2012-05-08T18:26:33Z</time>
      </trkpt>
      <trkpt lat="59.9833213" lon="17.7382841">
        <ele>60.2197</ele>
        <time>2012-05-08T18:26:39Z</time>
      </trkpt>
      <trkpt lat="59.9832822" lon="17.7382965">
        <ele>59.2584</ele>
        <time>2012-05-08T18:26:41Z</time>
      </trkpt>
      <trkpt lat="59.9831677" lon="17.738295">
        <ele>53.0098</ele>
        <time>2012-05-08T18:26:48Z</time>
      </trkpt>
      <trkpt lat="59.9831351" lon="17.7382949">
        <ele>52.5292</ele>
        <time>2012-05-08T18:26:50Z</time>
      </trkpt>
      <trkpt lat="59.9830528" lon="17.7382489">
        <ele>48.684</ele>
        <time>2012-05-08T18:26:54Z</time>
      </trkpt>
      <trkpt lat="59.9829425" lon="17.7382717">
        <ele>51.0872</ele>
        <time>2012-05-08T18:27:02Z</time>
      </trkpt>
      <trkpt lat="59.9828931" lon="17.738259">
        <ele>53.9712</ele>
        <time>2012-05-08T18:27:06Z</time>
      </trkpt>
      <trkpt lat="59.9828383" lon="17.7382612">
        <ele>56.8551</ele>
        <time>2012-05-08T18:27:10Z</time>
      </trkpt>
      <trkpt lat="59.9827415" lon="17.7382751">
        <ele>54.9324</ele>
        <time>2012-05-08T18:27:15Z</time>
      </trkpt>
      <trkpt lat="59.982674" lon="17.7382924">
        <ele>52.5292</ele>
        <time>2012-05-08T18:27:19Z</time>
      </trkpt>
      <trkpt lat="59.9826031" lon="17.7382571">
        <ele>51.0872</ele>
        <time>2012-05-08T18:27:23Z</time>
      </trkpt>
      <trkpt lat="59.9825376" lon="17.7382464">
        <ele>49.6453</ele>
        <time>2012-05-08T18:27:28Z</time>
      </trkpt>
      <trkpt lat="59.982416" lon="17.7382478">
        <ele>48.2034</ele>
        <time>2012-05-08T18:27:34Z</time>
      </trkpt>
      <trkpt lat="59.9823257" lon="17.7382488">
        <ele>52.0486</ele>
        <time>2012-05-08T18:27:39Z</time>
      </trkpt>
      <trkpt lat="59.9822254" lon="17.7382907">
        <ele>51.5679</ele>
        <time>2012-05-08T18:27:44Z</time>
      </trkpt>
      <trkpt lat="59.9821636" lon="17.7383091">
        <ele>51.0872</ele>
        <time>2012-05-08T18:27:48Z</time>
      </trkpt>
      <trkpt lat="59.9821005" lon="17.7384188">
        <ele>55.8938</ele>
        <time>2012-05-08T18:27:54Z</time>
      </trkpt>
      <trkpt lat="59.9820756" lon="17.7384208">
        <ele>55.8938</ele>
        <time>2012-05-08T18:27:56Z</time>
      </trkpt>
      <trkpt lat="59.9819809" lon="17.7384085">
        <ele>55.8938</ele>
        <time>2012-05-08T18:28:02Z</time>
      </trkpt>
      <trkpt lat="59.9818937" lon="17.7384583">
        <ele>52.5292</ele>
        <time>2012-05-08T18:28:07Z</time>
      </trkpt>
      <trkpt lat="59.9818079" lon="17.7384986">
        <ele>46.7612</ele>
        <time>2012-05-08T18:28:12Z</time>
      </trkpt>
      <trkpt lat="59.9817406" lon="17.7385437">
        <ele>49.1646</ele>
        <time>2012-05-08T18:28:18Z</time>
      </trkpt>
      <trkpt lat="59.9816918" lon="17.7385566">
        <ele>51.5679</ele>
        <time>2012-05-08T18:28:22Z</time>
      </trkpt>
      <trkpt lat="59.9816131" lon="17.7385737">
        <ele>53.0098</ele>
        <time>2012-05-08T18:28:27Z</time>
      </trkpt>
      <trkpt lat="59.9815753" lon="17.7385719">
        <ele>54.4518</ele>
        <time>2012-05-08T18:28:32Z</time>
      </trkpt>
      <trkpt lat="59.9815691" lon="17.7385761">
        <ele>56.3745</ele>
        <time>2012-05-08T18:28:33Z</time>
      </trkpt>
      <trkpt lat="59.9815581" lon="17.7385986">
        <ele>60.7003</ele>
        <time>2012-05-08T18:28:35Z</time>
      </trkpt>
      <trkpt lat="59.9815245" lon="17.7386115">
        <ele>60.7003</ele>
        <time>2012-05-08T18:28:38Z</time>
      </trkpt>
      <trkpt lat="59.9814132" lon="17.7386708">
        <ele>60.7003</ele>
        <time>2012-05-08T18:28:45Z</time>
      </trkpt>
      <trkpt lat="59.981294" lon="17.738689">
        <ele>58.7777</ele>
        <time>2012-05-08T18:28:51Z</time>
      </trkpt>
      <trkpt lat="59.9812462" lon="17.738748">
        <ele>60.2197</ele>
        <time>2012-05-08T18:28:55Z</time>
      </trkpt>
      <trkpt lat="59.9812149" lon="17.7387584">
        <ele>57.8165</ele>
        <time>2012-05-08T18:28:57Z</time>
      </trkpt>
      <trkpt lat="59.9811468" lon="17.7387751">
        <ele>57.8165</ele>
        <time>2012-05-08T18:29:01Z</time>
      </trkpt>
      <trkpt lat="59.9811059" lon="17.7387969">
        <ele>56.8551</ele>
        <time>2012-05-08T18:29:03Z</time>
      </trkpt>
      <trkpt lat="59.9810683" lon="17.7388099">
        <ele>54.4518</ele>
        <time>2012-05-08T18:29:05Z</time>
      </trkpt>
      <trkpt lat="59.9809283" lon="17.7388408">
        <ele>48.684</ele>
        <time>2012-05-08T18:29:11Z</time>
      </trkpt>
      <trkpt lat="59.9808178" lon="17.7388442">
        <ele>44.8386</ele>
        <time>2012-05-08T18:29:16Z</time>
      </trkpt>
      <trkpt lat="59.9807237" lon="17.7388621">
        <ele>44.8386</ele>
        <time>2012-05-08T18:29:22Z</time>
      </trkpt>
      <trkpt lat="59.9806486" lon="17.7388725">
        <ele>44.8386</ele>
        <time>2012-05-08T18:29:28Z</time>
      </trkpt>
      <trkpt lat="59.9805622" lon="17.7388926">
        <ele>44.8386</ele>
        <time>2012-05-08T18:29:33Z</time>
      </trkpt>
      <trkpt lat="59.9804792" lon="17.7389366">
        <ele>44.8386</ele>
        <time>2012-05-08T18:29:38Z</time>
      </trkpt>
      <trkpt lat="59.9804325" lon="17.7389587">
        <ele>42.916</ele>
        <time>2012-05-08T18:29:41Z</time>
      </trkpt>
      <trkpt lat="59.9803488" lon="17.7389459">
        <ele>42.4354</ele>
        <time>2012-05-08T18:29:48Z</time>
      </trkpt>
      <trkpt lat="59.9802934" lon="17.7389404">
        <ele>41.9547</ele>
        <time>2012-05-08T18:29:53Z</time>
      </trkpt>
      <trkpt lat="59.9801996" lon="17.738928">
        <ele>38.5901</ele>
        <time>2012-05-08T18:29:59Z</time>
      </trkpt>
      <trkpt lat="59.9801708" lon="17.7389331">
        <ele>36.1868</ele>
        <time>2012-05-08T18:30:01Z</time>
      </trkpt>
      <trkpt lat="59.9800726" lon="17.7389352">
        <ele>37.1481</ele>
        <time>2012-05-08T18:30:07Z</time>
      </trkpt>
      <trkpt lat="59.979969" lon="17.7389062">
        <ele>36.6675</ele>
        <time>2012-05-08T18:30:14Z</time>
      </trkpt>
      <trkpt lat="59.9799631" lon="17.7389009">
        <ele>37.1481</ele>
        <time>2012-05-08T18:30:15Z</time>
      </trkpt>
      <trkpt lat="59.9798435" lon="17.7388312">
        <ele>40.0321</ele>
        <time>2012-05-08T18:30:21Z</time>
      </trkpt>
      <trkpt lat="59.9797443" lon="17.7388827">
        <ele>37.1481</ele>
        <time>2012-05-08T18:30:28Z</time>
      </trkpt>
      <trkpt lat="59.9796354" lon="17.73892">
        <ele>36.6675</ele>
        <time>2012-05-08T18:30:35Z</time>
      </trkpt>
      <trkpt lat="59.9795565" lon="17.7389694">
        <ele>35.7061</ele>
        <time>2012-05-08T18:30:41Z</time>
      </trkpt>
      <trkpt lat="59.9795177" lon="17.7389781">
        <ele>36.1868</ele>
        <time>2012-05-08T18:30:45Z</time>
      </trkpt>
      <trkpt lat="59.9794385" lon="17.7390324">
        <ele>35.2255</ele>
        <time>2012-05-08T18:30:50Z</time>
      </trkpt>
      <trkpt lat="59.9794224" lon="17.7390425">
        <ele>34.7449</ele>
        <time>2012-05-08T18:30:51Z</time>
      </trkpt>
      <trkpt lat="59.9793375" lon="17.7391255">
        <ele>33.7834</ele>
        <time>2012-05-08T18:30:57Z</time>
      </trkpt>
      <trkpt lat="59.979308" lon="17.7391495">
        <ele>33.7834</ele>
        <time>2012-05-08T18:30:59Z</time>
      </trkpt>
      <trkpt lat="59.9791739" lon="17.7392243">
        <ele>37.1481</ele>
        <time>2012-05-08T18:31:09Z</time>
      </trkpt>
      <trkpt lat="59.9791417" lon="17.739231">
        <ele>38.1094</ele>
        <time>2012-05-08T18:31:12Z</time>
      </trkpt>
      <trkpt lat="59.9790486" lon="17.7393139">
        <ele>40.9934</ele>
        <time>2012-05-08T18:31:18Z</time>
      </trkpt>
      <trkpt lat="59.978966" lon="17.7393757">
        <ele>41.9547</ele>
        <time>2012-05-08T18:31:24Z</time>
      </trkpt>
      <trkpt lat="59.9788895" lon="17.7394122">
        <ele>41.474</ele>
        <time>2012-05-08T18:31:29Z</time>
      </trkpt>
      <trkpt lat="59.9787656" lon="17.7394184">
        <ele>39.0707</ele>
        <time>2012-05-08T18:31:36Z</time>
      </trkpt>
      <trkpt lat="59.978634" lon="17.7393875">
        <ele>37.6287</ele>
        <time>2012-05-08T18:31:44Z</time>
      </trkpt>
      <trkpt lat="59.978572" lon="17.739389">
        <ele>38.5901</ele>
        <time>2012-05-08T18:31:49Z</time>
      </trkpt>
      <trkpt lat="59.9785085" lon="17.7393678">
        <ele>39.5513</ele>
        <time>2012-05-08T18:31:54Z</time>
      </trkpt>
      <trkpt lat="59.9784532" lon="17.7393455">
        <ele>39.0707</ele>
        <time>2012-05-08T18:31:58Z</time>
      </trkpt>
      <trkpt lat="59.9784264" lon="17.7393485">
        <ele>39.0707</ele>
        <time>2012-05-08T18:32:00Z</time>
      </trkpt>
      <trkpt lat="59.9783238" lon="17.7393202">
        <ele>37.1481</ele>
        <time>2012-05-08T18:32:07Z</time>
      </trkpt>
      <trkpt lat="59.9782198" lon="17.7392998">
        <ele>37.1481</ele>
        <time>2012-05-08T18:32:13Z</time>
      </trkpt>
      <trkpt lat="59.9781164" lon="17.7392663">
        <ele>40.0321</ele>
        <time>2012-05-08T18:32:19Z</time>
      </trkpt>
      <trkpt lat="59.9780627" lon="17.7392531">
        <ele>40.0321</ele>
        <time>2012-05-08T18:32:22Z</time>
      </trkpt>
      <trkpt lat="59.9779639" lon="17.7392158">
        <ele>39.5513</ele>
        <time>2012-05-08T18:32:28Z</time>
      </trkpt>
      <trkpt lat="59.9778649" lon="17.739162">
        <ele>40.5128</ele>
        <time>2012-05-08T18:32:34Z</time>
      </trkpt>
      <trkpt lat="59.9778216" lon="17.7391243">
        <ele>41.9547</ele>
        <time>2012-05-08T18:32:36Z</time>
      </trkpt>
      <trkpt lat="59.9777333" lon="17.7391003">
        <ele>43.8773</ele>
        <time>2012-05-08T18:32:42Z</time>
      </trkpt>
      <trkpt lat="59.9776473" lon="17.7390948">
        <ele>43.3966</ele>
        <time>2012-05-08T18:32:49Z</time>
      </trkpt>
      <trkpt lat="59.9775544" lon="17.7391097">
        <ele>41.474</ele>
        <time>2012-05-08T18:32:56Z</time>
      </trkpt>
      <trkpt lat="59.9774696" lon="17.7391207">
        <ele>40.5128</ele>
        <time>2012-05-08T18:33:02Z</time>
      </trkpt>
      <trkpt lat="59.9773793" lon="17.7391797">
        <ele>40.5128</ele>
        <time>2012-05-08T18:33:08Z</time>
      </trkpt>
      <trkpt lat="59.9772955" lon="17.7391798">
        <ele>37.6287</ele>
        <time>2012-05-08T18:33:14Z</time>
      </trkpt>
      <trkpt lat="59.9772386" lon="17.7392088">
        <ele>36.6675</ele>
        <time>2012-05-08T18:33:18Z</time>
      </trkpt>
      <trkpt lat="59.9771259" lon="17.7392679">
        <ele>36.6675</ele>
        <time>2012-05-08T18:33:25Z</time>
      </trkpt>
      <trkpt lat="59.977035" lon="17.7393165">
        <ele>38.1094</ele>
        <time>2012-05-08T18:33:31Z</time>
      </trkpt>
      <trkpt lat="59.9769622" lon="17.7393717">
        <ele>39.5513</ele>
        <time>2012-05-08T18:33:37Z</time>
      </trkpt>
      <trkpt lat="59.9768406" lon="17.7394046">
        <ele>41.474</ele>
        <time>2012-05-08T18:33:44Z</time>
      </trkpt>
      <trkpt lat="59.9767163" lon="17.7394582">
        <ele>40.9934</ele>
        <time>2012-05-08T18:33:52Z</time>
      </trkpt>
      <trkpt lat="59.9766455" lon="17.7395102">
        <ele>38.5901</ele>
        <time>2012-05-08T18:33:57Z</time>
      </trkpt>
      <trkpt lat="59.9765859" lon="17.7395454">
        <ele>34.7449</ele>
        <time>2012-05-08T18:34:01Z</time>
      </trkpt>
      <trkpt lat="59.976462" lon="17.7396588">
        <ele>31.3801</ele>
        <time>2012-05-08T18:34:10Z</time>
      </trkpt>
      <trkpt lat="59.9763684" lon="17.7398288">
        <ele>32.8223</ele>
        <time>2012-05-08T18:34:18Z</time>
      </trkpt>
      <trkpt lat="59.9763081" lon="17.7400178">
        <ele>31.3801</ele>
        <time>2012-05-08T18:34:25Z</time>
      </trkpt>
      <trkpt lat="59.9762564" lon="17.7401755">
        <ele>32.3416</ele>
        <time>2012-05-08T18:34:31Z</time>
      </trkpt>
      <trkpt lat="59.9761948" lon="17.7403479">
        <ele>33.3029</ele>
        <time>2012-05-08T18:34:38Z</time>
      </trkpt>
      <trkpt lat="59.9761508" lon="17.7404897">
        <ele>33.3029</ele>
        <time>2012-05-08T18:34:44Z</time>
      </trkpt>
      <trkpt lat="59.9760892" lon="17.7406484">
        <ele>33.3029</ele>
        <time>2012-05-08T18:34:51Z</time>
      </trkpt>
      <trkpt lat="59.9760799" lon="17.7406706">
        <ele>33.3029</ele>
        <time>2012-05-08T18:34:52Z</time>
      </trkpt>
      <trkpt lat="59.9760273" lon="17.740889">
        <ele>31.8607</ele>
        <time>2012-05-08T18:35:00Z</time>
      </trkpt>
      <trkpt lat="59.9759938" lon="17.7410348">
        <ele>30.8995</ele>
        <time>2012-05-08T18:35:05Z</time>
      </trkpt>
      <trkpt lat="59.9759543" lon="17.7411786">
        <ele>29.4575</ele>
        <time>2012-05-08T18:35:10Z</time>
      </trkpt>
      <trkpt lat="59.9758981" lon="17.7413379">
        <ele>28.0155</ele>
        <time>2012-05-08T18:35:16Z</time>
      </trkpt>
      <trkpt lat="59.9758641" lon="17.7414518">
        <ele>28.9769</ele>
        <time>2012-05-08T18:35:21Z</time>
      </trkpt>
      <trkpt lat="59.9758233" lon="17.7416465">
        <ele>30.8995</ele>
        <time>2012-05-08T18:35:28Z</time>
      </trkpt>
      <trkpt lat="59.9757704" lon="17.7418734">
        <ele>30.4188</ele>
        <time>2012-05-08T18:35:35Z</time>
      </trkpt>
      <trkpt lat="59.9757358" lon="17.742025">
        <ele>29.4575</ele>
        <time>2012-05-08T18:35:40Z</time>
      </trkpt>
      <trkpt lat="59.975686" lon="17.7422188">
        <ele>27.0543</ele>
        <time>2012-05-08T18:35:47Z</time>
      </trkpt>
      <trkpt lat="59.9756354" lon="17.7424145">
        <ele>26.0929</ele>
        <time>2012-05-08T18:35:54Z</time>
      </trkpt>
      <trkpt lat="59.975603" lon="17.7425282">
        <ele>25.6123</ele>
        <time>2012-05-08T18:35:58Z</time>
      </trkpt>
      <trkpt lat="59.9755628" lon="17.7426668">
        <ele>24.1703</ele>
        <time>2012-05-08T18:36:03Z</time>
      </trkpt>
      <trkpt lat="59.9755466" lon="17.7427414">
        <ele>25.1317</ele>
        <time>2012-05-08T18:36:05Z</time>
      </trkpt>
      <trkpt lat="59.9755325" lon="17.742924">
        <ele>25.1317</ele>
        <time>2012-05-08T18:36:10Z</time>
      </trkpt>
      <trkpt lat="59.9755322" lon="17.7429618">
        <ele>25.6123</ele>
        <time>2012-05-08T18:36:11Z</time>
      </trkpt>
      <trkpt lat="59.9754678" lon="17.7431467">
        <ele>26.0929</ele>
        <time>2012-05-08T18:36:18Z</time>
      </trkpt>
      <trkpt lat="59.9754073" lon="17.7433471">
        <ele>27.5349</ele>
        <time>2012-05-08T18:36:26Z</time>
      </trkpt>
      <trkpt lat="59.9753908" lon="17.7434843">
        <ele>26.0929</ele>
        <time>2012-05-08T18:36:30Z</time>
      </trkpt>
      <trkpt lat="59.975353" lon="17.7435932">
        <ele>24.1703</ele>
        <time>2012-05-08T18:36:35Z</time>
      </trkpt>
      <trkpt lat="59.975311" lon="17.743787">
        <ele>20.8057</ele>
        <time>2012-05-08T18:36:43Z</time>
      </trkpt>
      <trkpt lat="59.9752739" lon="17.7439432">
        <ele>18.8831</ele>
        <time>2012-05-08T18:36:49Z</time>
      </trkpt>
      <trkpt lat="59.975249" lon="17.7440419">
        <ele>18.8831</ele>
        <time>2012-05-08T18:36:53Z</time>
      </trkpt>
      <trkpt lat="59.9751992" lon="17.7442521">
        <ele>20.325</ele>
        <time>2012-05-08T18:37:00Z</time>
      </trkpt>
      <trkpt lat="59.9751619" lon="17.7444401">
        <ele>21.767</ele>
        <time>2012-05-08T18:37:06Z</time>
      </trkpt>
      <trkpt lat="59.9751171" lon="17.7446244">
        <ele>24.1703</ele>
        <time>2012-05-08T18:37:12Z</time>
      </trkpt>
      <trkpt lat="59.975107" lon="17.744709">
        <ele>24.1703</ele>
        <time>2012-05-08T18:37:14Z</time>
      </trkpt>
      <trkpt lat="59.975053" lon="17.7448707">
        <ele>24.1703</ele>
        <time>2012-05-08T18:37:20Z</time>
      </trkpt>
      <trkpt lat="59.9749949" lon="17.7450146">
        <ele>22.2476</ele>
        <time>2012-05-08T18:37:26Z</time>
      </trkpt>
      <trkpt lat="59.9749271" lon="17.7451948">
        <ele>22.2476</ele>
        <time>2012-05-08T18:37:34Z</time>
      </trkpt>
      <trkpt lat="59.9748716" lon="17.7454207">
        <ele>25.1317</ele>
        <time>2012-05-08T18:37:42Z</time>
      </trkpt>
      <trkpt lat="59.9748433" lon="17.7455892">
        <ele>26.0929</ele>
        <time>2012-05-08T18:37:48Z</time>
      </trkpt>
      <trkpt lat="59.97484" lon="17.7456236">
        <ele>26.5736</ele>
        <time>2012-05-08T18:37:49Z</time>
      </trkpt>
      <trkpt lat="59.9747656" lon="17.7457371">
        <ele>29.4575</ele>
        <time>2012-05-08T18:37:55Z</time>
      </trkpt>
      <trkpt lat="59.9746814" lon="17.7458879">
        <ele>32.3416</ele>
        <time>2012-05-08T18:38:02Z</time>
      </trkpt>
      <trkpt lat="59.9746445" lon="17.7459378">
        <ele>32.3416</ele>
        <time>2012-05-08T18:38:05Z</time>
      </trkpt>
      <trkpt lat="59.9745356" lon="17.7461145">
        <ele>33.3029</ele>
        <time>2012-05-08T18:38:14Z</time>
      </trkpt>
      <trkpt lat="59.9745053" lon="17.7462017">
        <ele>33.7834</ele>
        <time>2012-05-08T18:38:18Z</time>
      </trkpt>
      <trkpt lat="59.9744055" lon="17.7463871">
        <ele>35.2255</ele>
        <time>2012-05-08T18:38:27Z</time>
      </trkpt>
      <trkpt lat="59.9743086" lon="17.7465121">
        <ele>37.6287</ele>
        <time>2012-05-08T18:38:34Z</time>
      </trkpt>
      <trkpt lat="59.9741741" lon="17.7467059">
        <ele>37.6287</ele>
        <time>2012-05-08T18:38:44Z</time>
      </trkpt>
      <trkpt lat="59.9740989" lon="17.7467841">
        <ele>39.0707</ele>
        <time>2012-05-08T18:38:49Z</time>
      </trkpt>
      <trkpt lat="59.9739823" lon="17.7468919">
        <ele>37.6287</ele>
        <time>2012-05-08T18:38:57Z</time>
      </trkpt>
      <trkpt lat="59.973907" lon="17.7469344">
        <ele>36.6675</ele>
        <time>2012-05-08T18:39:02Z</time>
      </trkpt>
      <trkpt lat="59.9738377" lon="17.7470362">
        <ele>36.6675</ele>
        <time>2012-05-08T18:39:08Z</time>
      </trkpt>
      <trkpt lat="59.9737884" lon="17.7471332">
        <ele>37.1481</ele>
        <time>2012-05-08T18:39:12Z</time>
      </trkpt>
      <trkpt lat="59.9737186" lon="17.747226">
        <ele>37.1481</ele>
        <time>2012-05-08T18:39:18Z</time>
      </trkpt>
      <trkpt lat="59.9736383" lon="17.7473279">
        <ele>35.2255</ele>
        <time>2012-05-08T18:39:25Z</time>
      </trkpt>
      <trkpt lat="59.9735595" lon="17.7474092">
        <ele>33.3029</ele>
        <time>2012-05-08T18:39:32Z</time>
      </trkpt>
      <trkpt lat="59.9735192" lon="17.7474429">
        <ele>33.3029</ele>
        <time>2012-05-08T18:39:35Z</time>
      </trkpt>
      <trkpt lat="59.9734445" lon="17.747514">
        <ele>34.2642</ele>
        <time>2012-05-08T18:39:40Z</time>
      </trkpt>
      <trkpt lat="59.9733649" lon="17.7476062">
        <ele>35.7061</ele>
        <time>2012-05-08T18:39:46Z</time>
      </trkpt>
      <trkpt lat="59.9732892" lon="17.7477153">
        <ele>36.1868</ele>
        <time>2012-05-08T18:39:52Z</time>
      </trkpt>
      <trkpt lat="59.9732087" lon="17.7478119">
        <ele>36.6675</ele>
        <time>2012-05-08T18:39:58Z</time>
      </trkpt>
      <trkpt lat="59.9731334" lon="17.7479135">
        <ele>38.1094</ele>
        <time>2012-05-08T18:40:04Z</time>
      </trkpt>
      <trkpt lat="59.973093" lon="17.7479715">
        <ele>37.6287</ele>
        <time>2012-05-08T18:40:07Z</time>
      </trkpt>
      <trkpt lat="59.9730125" lon="17.7480155">
        <ele>38.1094</ele>
        <time>2012-05-08T18:40:12Z</time>
      </trkpt>
      <trkpt lat="59.9729278" lon="17.7481482">
        <ele>40.9934</ele>
        <time>2012-05-08T18:40:17Z</time>
      </trkpt>
      <trkpt lat="59.9728995" lon="17.7483677">
        <ele>41.474</ele>
        <time>2012-05-08T18:40:25Z</time>
      </trkpt>
      <trkpt lat="59.9728737" lon="17.748402">
        <ele>41.9547</ele>
        <time>2012-05-08T18:40:27Z</time>
      </trkpt>
      <trkpt lat="59.9728055" lon="17.7484859">
        <ele>41.474</ele>
        <time>2012-05-08T18:40:32Z</time>
      </trkpt>
      <trkpt lat="59.9727796" lon="17.7485921">
        <ele>42.4354</ele>
        <time>2012-05-08T18:40:37Z</time>
      </trkpt>
      <trkpt lat="59.9727609" lon="17.7486687">
        <ele>43.3966</ele>
        <time>2012-05-08T18:40:40Z</time>
      </trkpt>
      <trkpt lat="59.9726685" lon="17.748811">
        <ele>44.358</ele>
        <time>2012-05-08T18:40:47Z</time>
      </trkpt>
      <trkpt lat="59.9726465" lon="17.7490054">
        <ele>46.7612</ele>
        <time>2012-05-08T18:40:52Z</time>
      </trkpt>
      <trkpt lat="59.972641" lon="17.7492916">
        <ele>51.5679</ele>
        <time>2012-05-08T18:40:58Z</time>
      </trkpt>
      <trkpt lat="59.9726346" lon="17.7495025">
        <ele>51.5679</ele>
        <time>2012-05-08T18:41:04Z</time>
      </trkpt>
      <trkpt lat="59.9726163" lon="17.7495002">
        <ele>49.6453</ele>
        <time>2012-05-08T18:41:05Z</time>
      </trkpt>
      <trkpt lat="59.9725063" lon="17.7495342">
        <ele>43.8773</ele>
        <time>2012-05-08T18:41:12Z</time>
      </trkpt>
      <trkpt lat="59.9724716" lon="17.7495775">
        <ele>41.9547</ele>
        <time>2012-05-08T18:41:15Z</time>
      </trkpt>
      <trkpt lat="59.9724229" lon="17.7495864">
        <ele>42.4354</ele>
        <time>2012-05-08T18:41:17Z</time>
      </trkpt>
      <trkpt lat="59.9722755" lon="17.7496239">
        <ele>40.0321</ele>
        <time>2012-05-08T18:41:25Z</time>
      </trkpt>
      <trkpt lat="59.9722268" lon="17.7496837">
        <ele>39.0707</ele>
        <time>2012-05-08T18:41:29Z</time>
      </trkpt>
      <trkpt lat="59.9721673" lon="17.749891">
        <ele>40.9934</ele>
        <time>2012-05-08T18:41:36Z</time>
      </trkpt>
      <trkpt lat="59.9720962" lon="17.7500173">
        <ele>42.916</ele>
        <time>2012-05-08T18:41:42Z</time>
      </trkpt>
      <trkpt lat="59.9720562" lon="17.7500676">
        <ele>42.4354</ele>
        <time>2012-05-08T18:41:45Z</time>
      </trkpt>
      <trkpt lat="59.9720263" lon="17.7501304">
        <ele>41.9547</ele>
        <time>2012-05-08T18:41:48Z</time>
      </trkpt>
      <trkpt lat="59.9719897" lon="17.7502268">
        <ele>40.9934</ele>
        <time>2012-05-08T18:41:52Z</time>
      </trkpt>
      <trkpt lat="59.9719331" lon="17.7504005">
        <ele>39.5513</ele>
        <time>2012-05-08T18:41:59Z</time>
      </trkpt>
      <trkpt lat="59.9719284" lon="17.75044">
        <ele>40.0321</ele>
        <time>2012-05-08T18:42:00Z</time>
      </trkpt>
      <trkpt lat="59.9718673" lon="17.7505925">
        <ele>38.5901</ele>
        <time>2012-05-08T18:42:06Z</time>
      </trkpt>
      <trkpt lat="59.9718536" lon="17.7506085">
        <ele>38.1094</ele>
        <time>2012-05-08T18:42:07Z</time>
      </trkpt>
      <trkpt lat="59.9717878" lon="17.7507472">
        <ele>36.6675</ele>
        <time>2012-05-08T18:42:14Z</time>
      </trkpt>
      <trkpt lat="59.9717264" lon="17.7508033">
        <ele>35.7061</ele>
        <time>2012-05-08T18:42:18Z</time>
      </trkpt>
      <trkpt lat="59.9716601" lon="17.7508717">
        <ele>35.2255</ele>
        <time>2012-05-08T18:42:24Z</time>
      </trkpt>
      <trkpt lat="59.9716069" lon="17.7509404">
        <ele>34.2642</ele>
        <time>2012-05-08T18:42:29Z</time>
      </trkpt>
      <trkpt lat="59.9715665" lon="17.750981">
        <ele>34.7449</ele>
        <time>2012-05-08T18:42:32Z</time>
      </trkpt>
      <trkpt lat="59.9715119" lon="17.7510782">
        <ele>33.7834</ele>
        <time>2012-05-08T18:42:37Z</time>
      </trkpt>
      <trkpt lat="59.971477" lon="17.7511168">
        <ele>33.3029</ele>
        <time>2012-05-08T18:42:39Z</time>
      </trkpt>
      <trkpt lat="59.9714085" lon="17.751178">
        <ele>31.3801</ele>
        <time>2012-05-08T18:42:44Z</time>
      </trkpt>
      <trkpt lat="59.9713005" lon="17.7512889">
        <ele>33.3029</ele>
        <time>2012-05-08T18:42:51Z</time>
      </trkpt>
      <trkpt lat="59.9712318" lon="17.7514103">
        <ele>34.7449</ele>
        <time>2012-05-08T18:42:57Z</time>
      </trkpt>
      <trkpt lat="59.9711854" lon="17.7514871">
        <ele>33.3029</ele>
        <time>2012-05-08T18:43:01Z</time>
      </trkpt>
      <trkpt lat="59.971113" lon="17.7515735">
        <ele>30.8995</ele>
        <time>2012-05-08T18:43:07Z</time>
      </trkpt>
      <trkpt lat="59.971054" lon="17.7516514">
        <ele>32.3416</ele>
        <time>2012-05-08T18:43:12Z</time>
      </trkpt>
      <trkpt lat="59.9709686" lon="17.7517216">
        <ele>31.8607</ele>
        <time>2012-05-08T18:43:17Z</time>
      </trkpt>
      <trkpt lat="59.9709212" lon="17.7517907">
        <ele>31.3801</ele>
        <time>2012-05-08T18:43:21Z</time>
      </trkpt>
      <trkpt lat="59.9708619" lon="17.751886">
        <ele>31.8607</ele>
        <time>2012-05-08T18:43:27Z</time>
      </trkpt>
      <trkpt lat="59.9707912" lon="17.7520077">
        <ele>30.8995</ele>
        <time>2012-05-08T18:43:33Z</time>
      </trkpt>
      <trkpt lat="59.9707384" lon="17.7521201">
        <ele>29.4575</ele>
        <time>2012-05-08T18:43:39Z</time>
      </trkpt>
      <trkpt lat="59.9707142" lon="17.752164">
        <ele>29.9381</ele>
        <time>2012-05-08T18:43:41Z</time>
      </trkpt>
      <trkpt lat="59.9706567" lon="17.7522339">
        <ele>28.9769</ele>
        <time>2012-05-08T18:43:45Z</time>
      </trkpt>
      <trkpt lat="59.9706219" lon="17.7522854">
        <ele>28.0155</ele>
        <time>2012-05-08T18:43:48Z</time>
      </trkpt>
      <trkpt lat="59.9705909" lon="17.7523004">
        <ele>28.4962</ele>
        <time>2012-05-08T18:43:50Z</time>
      </trkpt>
      <trkpt lat="59.970537" lon="17.7524335">
        <ele>29.9381</ele>
        <time>2012-05-08T18:43:56Z</time>
      </trkpt>
      <trkpt lat="59.9704907" lon="17.7525717">
        <ele>29.9381</ele>
        <time>2012-05-08T18:44:02Z</time>
      </trkpt>
      <trkpt lat="59.9704493" lon="17.7526805">
        <ele>28.9769</ele>
        <time>2012-05-08T18:44:07Z</time>
      </trkpt>
      <trkpt lat="59.9704437" lon="17.7527935">
        <ele>28.9769</ele>
        <time>2012-05-08T18:44:11Z</time>
      </trkpt>
      <trkpt lat="59.9703801" lon="17.7529703">
        <ele>29.4575</ele>
        <time>2012-05-08T18:44:18Z</time>
      </trkpt>
      <trkpt lat="59.9703574" lon="17.7530791">
        <ele>29.4575</ele>
        <time>2012-05-08T18:44:22Z</time>
      </trkpt>
      <trkpt lat="59.9703303" lon="17.7532442">
        <ele>28.0155</ele>
        <time>2012-05-08T18:44:28Z</time>
      </trkpt>
      <trkpt lat="59.9703091" lon="17.7532966">
        <ele>28.4962</ele>
        <time>2012-05-08T18:44:30Z</time>
      </trkpt>
      <trkpt lat="59.9702252" lon="17.7534315">
        <ele>27.5349</ele>
        <time>2012-05-08T18:44:37Z</time>
      </trkpt>
      <trkpt lat="59.9701719" lon="17.7535483">
        <ele>28.0155</ele>
        <time>2012-05-08T18:44:42Z</time>
      </trkpt>
      <trkpt lat="59.9701346" lon="17.7536394">
        <ele>27.5349</ele>
        <time>2012-05-08T18:44:46Z</time>
      </trkpt>
      <trkpt lat="59.9700532" lon="17.7538131">
        <ele>29.4575</ele>
        <time>2012-05-08T18:44:53Z</time>
      </trkpt>
      <trkpt lat="59.9699766" lon="17.7539653">
        <ele>29.4575</ele>
        <time>2012-05-08T18:45:00Z</time>
      </trkpt>
      <trkpt lat="59.9698977" lon="17.7541208">
        <ele>31.8607</ele>
        <time>2012-05-08T18:45:07Z</time>
      </trkpt>
      <trkpt lat="59.9698373" lon="17.7542948">
        <ele>33.3029</ele>
        <time>2012-05-08T18:45:14Z</time>
      </trkpt>
      <trkpt lat="59.9697688" lon="17.7544175">
        <ele>34.2642</ele>
        <time>2012-05-08T18:45:20Z</time>
      </trkpt>
      <trkpt lat="59.9696968" lon="17.7545347">
        <ele>34.7449</ele>
        <time>2012-05-08T18:45:26Z</time>
      </trkpt>
      <trkpt lat="59.9696285" lon="17.7546635">
        <ele>35.2255</ele>
        <time>2012-05-08T18:45:32Z</time>
      </trkpt>
      <trkpt lat="59.9695652" lon="17.7548236">
        <ele>34.7449</ele>
        <time>2012-05-08T18:45:39Z</time>
      </trkpt>
      <trkpt lat="59.9694964" lon="17.754881">
        <ele>35.2255</ele>
        <time>2012-05-08T18:45:43Z</time>
      </trkpt>
      <trkpt lat="59.9694542" lon="17.7550001">
        <ele>35.7061</ele>
        <time>2012-05-08T18:45:48Z</time>
      </trkpt>
      <trkpt lat="59.9694062" lon="17.7550623">
        <ele>35.7061</ele>
        <time>2012-05-08T18:45:52Z</time>
      </trkpt>
      <trkpt lat="59.9693435" lon="17.7551957">
        <ele>35.2255</ele>
        <time>2012-05-08T18:45:58Z</time>
      </trkpt>
      <trkpt lat="59.9692885" lon="17.7553327">
        <ele>36.1868</ele>
        <time>2012-05-08T18:46:04Z</time>
      </trkpt>
      <trkpt lat="59.9692441" lon="17.7554236">
        <ele>36.1868</ele>
        <time>2012-05-08T18:46:08Z</time>
      </trkpt>
      <trkpt lat="59.9705656" lon="17.7524507">
        <ele>31.3801</ele>
        <time>2012-05-08T18:48:21Z</time>
      </trkpt>
      <trkpt lat="59.9706008" lon="17.7523621">
        <ele>31.3801</ele>
        <time>2012-05-08T18:48:24Z</time>
      </trkpt>
      <trkpt lat="59.9706805" lon="17.7521776">
        <ele>31.8607</ele>
        <time>2012-05-08T18:48:32Z</time>
      </trkpt>
      <trkpt lat="59.9707501" lon="17.7520414">
        <ele>34.2642</ele>
        <time>2012-05-08T18:48:38Z</time>
      </trkpt>
      <trkpt lat="59.9708525" lon="17.7518651">
        <ele>35.7061</ele>
        <time>2012-05-08T18:48:47Z</time>
      </trkpt>
      <trkpt lat="59.9709421" lon="17.7517328">
        <ele>35.7061</ele>
        <time>2012-05-08T18:48:55Z</time>
      </trkpt>
      <trkpt lat="59.9710266" lon="17.7516426">
        <ele>35.7061</ele>
        <time>2012-05-08T18:49:01Z</time>
      </trkpt>
      <trkpt lat="59.9711276" lon="17.7515571">
        <ele>34.2642</ele>
        <time>2012-05-08T18:49:08Z</time>
      </trkpt>
      <trkpt lat="59.9711897" lon="17.7514193">
        <ele>35.2255</ele>
        <time>2012-05-08T18:49:14Z</time>
      </trkpt>
      <trkpt lat="59.9712534" lon="17.7513093">
        <ele>34.7449</ele>
        <time>2012-05-08T18:49:20Z</time>
      </trkpt>
      <trkpt lat="59.9713351" lon="17.75117">
        <ele>36.1868</ele>
        <time>2012-05-08T18:49:28Z</time>
      </trkpt>
      <trkpt lat="59.97144" lon="17.7510348">
        <ele>37.1481</ele>
        <time>2012-05-08T18:49:36Z</time>
      </trkpt>
      <trkpt lat="59.9715528" lon="17.7509079">
        <ele>38.1094</ele>
        <time>2012-05-08T18:49:44Z</time>
      </trkpt>
      <trkpt lat="59.9716839" lon="17.7507112">
        <ele>40.0321</ele>
        <time>2012-05-08T18:49:54Z</time>
      </trkpt>
      <trkpt lat="59.9718018" lon="17.7505193">
        <ele>41.9547</ele>
        <time>2012-05-08T18:50:03Z</time>
      </trkpt>
      <trkpt lat="59.9718839" lon="17.7503772">
        <ele>42.916</ele>
        <time>2012-05-08T18:50:10Z</time>
      </trkpt>
      <trkpt lat="59.9719558" lon="17.7502396">
        <ele>40.5128</ele>
        <time>2012-05-08T18:50:17Z</time>
      </trkpt>
      <trkpt lat="59.9720155" lon="17.7501859">
        <ele>40.5128</ele>
        <time>2012-05-08T18:50:21Z</time>
      </trkpt>
      <trkpt lat="59.9720719" lon="17.750049">
        <ele>37.6287</ele>
        <time>2012-05-08T18:50:27Z</time>
      </trkpt>
      <trkpt lat="59.9721569" lon="17.7499068">
        <ele>35.2255</ele>
        <time>2012-05-08T18:50:34Z</time>
      </trkpt>
      <trkpt lat="59.9722083" lon="17.7497482">
        <ele>35.7061</ele>
        <time>2012-05-08T18:50:40Z</time>
      </trkpt>
      <trkpt lat="59.9722668" lon="17.7496097">
        <ele>35.2255</ele>
        <time>2012-05-08T18:50:46Z</time>
      </trkpt>
      <trkpt lat="59.972309" lon="17.7494401">
        <ele>36.6675</ele>
        <time>2012-05-08T18:50:52Z</time>
      </trkpt>
      <trkpt lat="59.9723817" lon="17.7492916">
        <ele>38.1094</ele>
        <time>2012-05-08T18:50:58Z</time>
      </trkpt>
      <trkpt lat="59.9724685" lon="17.7491712">
        <ele>36.1868</ele>
        <time>2012-05-08T18:51:04Z</time>
      </trkpt>
      <trkpt lat="59.9724784" lon="17.7491514">
        <ele>35.7061</ele>
        <time>2012-05-08T18:51:05Z</time>
      </trkpt>
      <trkpt lat="59.9725609" lon="17.7489853">
        <ele>32.3416</ele>
        <time>2012-05-08T18:51:13Z</time>
      </trkpt>
      <trkpt lat="59.97257" lon="17.7489205">
        <ele>32.8223</ele>
        <time>2012-05-08T18:51:15Z</time>
      </trkpt>
      <trkpt lat="59.9725825" lon="17.7487655">
        <ele>34.7449</ele>
        <time>2012-05-08T18:51:20Z</time>
      </trkpt>
      <trkpt lat="59.9726869" lon="17.7486063">
        <ele>34.7449</ele>
        <time>2012-05-08T18:51:28Z</time>
      </trkpt>
      <trkpt lat="59.972697" lon="17.7485851">
        <ele>34.7449</ele>
        <time>2012-05-08T18:51:29Z</time>
      </trkpt>
      <trkpt lat="59.9727583" lon="17.7484702">
        <ele>35.2255</ele>
        <time>2012-05-08T18:51:34Z</time>
      </trkpt>
      <trkpt lat="59.9728252" lon="17.7483351">
        <ele>34.2642</ele>
        <time>2012-05-08T18:51:40Z</time>
      </trkpt>
      <trkpt lat="59.9728889" lon="17.7482304">
        <ele>34.7449</ele>
        <time>2012-05-08T18:51:45Z</time>
      </trkpt>
      <trkpt lat="59.9729884" lon="17.7480501">
        <ele>32.8223</ele>
        <time>2012-05-08T18:51:54Z</time>
      </trkpt>
      <trkpt lat="59.9730971" lon="17.7479061">
        <ele>33.7834</ele>
        <time>2012-05-08T18:52:02Z</time>
      </trkpt>
      <trkpt lat="59.9732269" lon="17.7477453">
        <ele>35.7061</ele>
        <time>2012-05-08T18:52:12Z</time>
      </trkpt>
      <trkpt lat="59.973293" lon="17.747671">
        <ele>35.7061</ele>
        <time>2012-05-08T18:52:17Z</time>
      </trkpt>
      <trkpt lat="59.9733616" lon="17.7475694">
        <ele>36.6675</ele>
        <time>2012-05-08T18:52:23Z</time>
      </trkpt>
      <trkpt lat="59.973502" lon="17.747428">
        <ele>38.1094</ele>
        <time>2012-05-08T18:52:33Z</time>
      </trkpt>
      <trkpt lat="59.9735888" lon="17.7473409">
        <ele>37.1481</ele>
        <time>2012-05-08T18:52:40Z</time>
      </trkpt>
      <trkpt lat="59.9736687" lon="17.7472725">
        <ele>35.2255</ele>
        <time>2012-05-08T18:52:46Z</time>
      </trkpt>
      <trkpt lat="59.9737565" lon="17.7472002">
        <ele>34.2642</ele>
        <time>2012-05-08T18:52:52Z</time>
      </trkpt>
      <trkpt lat="59.9738414" lon="17.7471069">
        <ele>33.7834</ele>
        <time>2012-05-08T18:52:58Z</time>
      </trkpt>
      <trkpt lat="59.973912" lon="17.747009">
        <ele>33.7834</ele>
        <time>2012-05-08T18:53:04Z</time>
      </trkpt>
      <trkpt lat="59.9739928" lon="17.7468976">
        <ele>33.7834</ele>
        <time>2012-05-08T18:53:10Z</time>
      </trkpt>
      <trkpt lat="59.9740828" lon="17.7467965">
        <ele>34.2642</ele>
        <time>2012-05-08T18:53:16Z</time>
      </trkpt>
      <trkpt lat="59.974158" lon="17.7467264">
        <ele>35.7061</ele>
        <time>2012-05-08T18:53:21Z</time>
      </trkpt>
      <trkpt lat="59.9742704" lon="17.7466008">
        <ele>37.6287</ele>
        <time>2012-05-08T18:53:29Z</time>
      </trkpt>
      <trkpt lat="59.9743565" lon="17.7464641">
        <ele>38.1094</ele>
        <time>2012-05-08T18:53:37Z</time>
      </trkpt>
      <trkpt lat="59.9744424" lon="17.7463621">
        <ele>37.6287</ele>
        <time>2012-05-08T18:53:43Z</time>
      </trkpt>
      <trkpt lat="59.9745496" lon="17.7462019">
        <ele>37.1481</ele>
        <time>2012-05-08T18:53:52Z</time>
      </trkpt>
      <trkpt lat="59.9746369" lon="17.7460256">
        <ele>38.1094</ele>
        <time>2012-05-08T18:54:01Z</time>
      </trkpt>
      <trkpt lat="59.9747066" lon="17.7458902">
        <ele>38.5901</ele>
        <time>2012-05-08T18:54:08Z</time>
      </trkpt>
      <trkpt lat="59.9748013" lon="17.7457045">
        <ele>38.1094</ele>
        <time>2012-05-08T18:54:17Z</time>
      </trkpt>
      <trkpt lat="59.9748765" lon="17.7455057">
        <ele>38.5901</ele>
        <time>2012-05-08T18:54:25Z</time>
      </trkpt>
      <trkpt lat="59.974936" lon="17.7453043">
        <ele>38.1094</ele>
        <time>2012-05-08T18:54:33Z</time>
      </trkpt>
      <trkpt lat="59.9750166" lon="17.7450768">
        <ele>37.6287</ele>
        <time>2012-05-08T18:54:42Z</time>
      </trkpt>
      <trkpt lat="59.9750845" lon="17.7448541">
        <ele>37.6287</ele>
        <time>2012-05-08T18:54:50Z</time>
      </trkpt>
      <trkpt lat="59.9751463" lon="17.7446349">
        <ele>37.6287</ele>
        <time>2012-05-08T18:54:58Z</time>
      </trkpt>
      <trkpt lat="59.9752029" lon="17.7444122">
        <ele>38.1094</ele>
        <time>2012-05-08T18:55:06Z</time>
      </trkpt>
      <trkpt lat="59.9752168" lon="17.7443563">
        <ele>38.1094</ele>
        <time>2012-05-08T18:55:08Z</time>
      </trkpt>
      <trkpt lat="59.9752468" lon="17.7442457">
        <ele>38.1094</ele>
        <time>2012-05-08T18:55:12Z</time>
      </trkpt>
      <trkpt lat="59.9753124" lon="17.7439661">
        <ele>37.6287</ele>
        <time>2012-05-08T18:55:22Z</time>
      </trkpt>
      <trkpt lat="59.9753577" lon="17.7437133">
        <ele>36.1868</ele>
        <time>2012-05-08T18:55:31Z</time>
      </trkpt>
      <trkpt lat="59.9754136" lon="17.7434207">
        <ele>36.1868</ele>
        <time>2012-05-08T18:55:41Z</time>
      </trkpt>
      <trkpt lat="59.975427" lon="17.7433647">
        <ele>36.1868</ele>
        <time>2012-05-08T18:55:43Z</time>
      </trkpt>
      <trkpt lat="59.9754841" lon="17.7431145">
        <ele>36.6675</ele>
        <time>2012-05-08T18:55:52Z</time>
      </trkpt>
      <trkpt lat="59.9755011" lon="17.7430347">
        <ele>36.1868</ele>
        <time>2012-05-08T18:55:55Z</time>
      </trkpt>
      <trkpt lat="59.9755403" lon="17.7428926">
        <ele>36.1868</ele>
        <time>2012-05-08T18:56:00Z</time>
      </trkpt>
      <trkpt lat="59.9756332" lon="17.7426142">
        <ele>34.2642</ele>
        <time>2012-05-08T18:56:11Z</time>
      </trkpt>
      <trkpt lat="59.9757047" lon="17.7424101">
        <ele>33.3029</ele>
        <time>2012-05-08T18:56:19Z</time>
      </trkpt>
      <trkpt lat="59.9757641" lon="17.7422313">
        <ele>32.3416</ele>
        <time>2012-05-08T18:56:26Z</time>
      </trkpt>
      <trkpt lat="59.9758249" lon="17.7419677">
        <ele>33.3029</ele>
        <time>2012-05-08T18:56:35Z</time>
      </trkpt>
      <trkpt lat="59.9758524" lon="17.7418031">
        <ele>34.2642</ele>
        <time>2012-05-08T18:56:40Z</time>
      </trkpt>
      <trkpt lat="59.9758768" lon="17.7416501">
        <ele>34.2642</ele>
        <time>2012-05-08T18:56:45Z</time>
      </trkpt>
      <trkpt lat="59.9759174" lon="17.7414501">
        <ele>32.3416</ele>
        <time>2012-05-08T18:56:52Z</time>
      </trkpt>
      <trkpt lat="59.9759435" lon="17.7413374">
        <ele>32.3416</ele>
        <time>2012-05-08T18:56:56Z</time>
      </trkpt>
      <trkpt lat="59.9759576" lon="17.7412797">
        <ele>32.8223</ele>
        <time>2012-05-08T18:56:58Z</time>
      </trkpt>
      <trkpt lat="59.9759842" lon="17.7411048">
        <ele>32.8223</ele>
        <time>2012-05-08T18:57:04Z</time>
      </trkpt>
      <trkpt lat="59.9760409" lon="17.7408613">
        <ele>33.3029</ele>
        <time>2012-05-08T18:57:13Z</time>
      </trkpt>
      <trkpt lat="59.9761134" lon="17.7406352">
        <ele>32.3416</ele>
        <time>2012-05-08T18:57:22Z</time>
      </trkpt>
      <trkpt lat="59.9761852" lon="17.7404332">
        <ele>32.3416</ele>
        <time>2012-05-08T18:57:30Z</time>
      </trkpt>
      <trkpt lat="59.9762414" lon="17.7402474">
        <ele>33.7834</ele>
        <time>2012-05-08T18:57:37Z</time>
      </trkpt>
      <trkpt lat="59.9762652" lon="17.7401634">
        <ele>33.7834</ele>
        <time>2012-05-08T18:57:40Z</time>
      </trkpt>
      <trkpt lat="59.9763299" lon="17.7399827">
        <ele>33.3029</ele>
        <time>2012-05-08T18:57:47Z</time>
      </trkpt>
      <trkpt lat="59.9763901" lon="17.7398323">
        <ele>33.3029</ele>
        <time>2012-05-08T18:57:53Z</time>
      </trkpt>
      <trkpt lat="59.9764648" lon="17.7396692">
        <ele>33.3029</ele>
        <time>2012-05-08T18:58:00Z</time>
      </trkpt>
      <trkpt lat="59.9765651" lon="17.7395164">
        <ele>33.7834</ele>
        <time>2012-05-08T18:58:08Z</time>
      </trkpt>
      <trkpt lat="59.976661" lon="17.7394211">
        <ele>34.7449</ele>
        <time>2012-05-08T18:58:15Z</time>
      </trkpt>
      <trkpt lat="59.9767631" lon="17.7393308">
        <ele>36.1868</ele>
        <time>2012-05-08T18:58:22Z</time>
      </trkpt>
      <trkpt lat="59.97679" lon="17.739315">
        <ele>36.1868</ele>
        <time>2012-05-08T18:58:24Z</time>
      </trkpt>
      <trkpt lat="59.976903" lon="17.7392813">
        <ele>36.6675</ele>
        <time>2012-05-08T18:58:31Z</time>
      </trkpt>
      <trkpt lat="59.9769982" lon="17.7392477">
        <ele>38.1094</ele>
        <time>2012-05-08T18:58:37Z</time>
      </trkpt>
      <trkpt lat="59.977107" lon="17.7391906">
        <ele>40.9934</ele>
        <time>2012-05-08T18:58:45Z</time>
      </trkpt>
      <trkpt lat="59.977219" lon="17.7391129">
        <ele>40.9934</ele>
        <time>2012-05-08T18:58:53Z</time>
      </trkpt>
      <trkpt lat="59.9773594" lon="17.7390456">
        <ele>39.5513</ele>
        <time>2012-05-08T18:59:02Z</time>
      </trkpt>
      <trkpt lat="59.9773687" lon="17.7390357">
        <ele>39.5513</ele>
        <time>2012-05-08T18:59:03Z</time>
      </trkpt>
      <trkpt lat="59.9774581" lon="17.7389923">
        <ele>41.9547</ele>
        <time>2012-05-08T18:59:09Z</time>
      </trkpt>
      <trkpt lat="59.9774757" lon="17.7389806">
        <ele>42.4354</ele>
        <time>2012-05-08T18:59:10Z</time>
      </trkpt>
      <trkpt lat="59.9775981" lon="17.7389517">
        <ele>43.3966</ele>
        <time>2012-05-08T18:59:18Z</time>
      </trkpt>
      <trkpt lat="59.9776959" lon="17.7389563">
        <ele>42.916</ele>
        <time>2012-05-08T18:59:24Z</time>
      </trkpt>
      <trkpt lat="59.977796" lon="17.7389611">
        <ele>43.8773</ele>
        <time>2012-05-08T18:59:30Z</time>
      </trkpt>
      <trkpt lat="59.9779149" lon="17.7389942">
        <ele>45.3192</ele>
        <time>2012-05-08T18:59:37Z</time>
      </trkpt>
      <trkpt lat="59.9779991" lon="17.739031">
        <ele>46.7612</ele>
        <time>2012-05-08T18:59:42Z</time>
      </trkpt>
      <trkpt lat="59.9780402" lon="17.7390617">
        <ele>46.2806</ele>
        <time>2012-05-08T18:59:46Z</time>
      </trkpt>
      <trkpt lat="59.9781249" lon="17.7391134">
        <ele>45.3192</ele>
        <time>2012-05-08T18:59:52Z</time>
      </trkpt>
      <trkpt lat="59.9781679" lon="17.739151">
        <ele>44.358</ele>
        <time>2012-05-08T18:59:57Z</time>
      </trkpt>
      <trkpt lat="59.9781968" lon="17.7391632">
        <ele>43.8773</ele>
        <time>2012-05-08T19:00:00Z</time>
      </trkpt>
      <trkpt lat="59.9782539" lon="17.7391585">
        <ele>43.8773</ele>
        <time>2012-05-08T19:00:04Z</time>
      </trkpt>
      <trkpt lat="59.978307" lon="17.7391725">
        <ele>43.3966</ele>
        <time>2012-05-08T19:00:07Z</time>
      </trkpt>
      <trkpt lat="59.9784015" lon="17.7392046">
        <ele>41.9547</ele>
        <time>2012-05-08T19:00:13Z</time>
      </trkpt>
      <trkpt lat="59.9784128" lon="17.7392073">
        <ele>41.474</ele>
        <time>2012-05-08T19:00:14Z</time>
      </trkpt>
      <trkpt lat="59.9785056" lon="17.7392173">
        <ele>41.9547</ele>
        <time>2012-05-08T19:00:21Z</time>
      </trkpt>
      <trkpt lat="59.9785952" lon="17.7392455">
        <ele>42.916</ele>
        <time>2012-05-08T19:00:27Z</time>
      </trkpt>
      <trkpt lat="59.9786305" lon="17.7392422">
        <ele>43.3966</ele>
        <time>2012-05-08T19:00:29Z</time>
      </trkpt>
      <trkpt lat="59.9786878" lon="17.7392507">
        <ele>42.4354</ele>
        <time>2012-05-08T19:00:34Z</time>
      </trkpt>
      <trkpt lat="59.9787128" lon="17.7392368">
        <ele>41.9547</ele>
        <time>2012-05-08T19:00:36Z</time>
      </trkpt>
      <trkpt lat="59.9788133" lon="17.7392927">
        <ele>41.9547</ele>
        <time>2012-05-08T19:00:43Z</time>
      </trkpt>
      <trkpt lat="59.978904" lon="17.7394097">
        <ele>40.0321</ele>
        <time>2012-05-08T19:00:50Z</time>
      </trkpt>
      <trkpt lat="59.9789789" lon="17.7396133">
        <ele>40.0321</ele>
        <time>2012-05-08T19:00:58Z</time>
      </trkpt>
    </trkseg>
  </trk>
</gpx>